This is the latest recevied weather packets stored in our database for station/object F4THN-13. If no packets are shown the sender has not sent any weather packets the latest 10 day(s).
| Time | Temp. | Humidity | Pressure | Rain* | Wind** | Luminosity | Snow |
|---|---|---|---|---|---|---|---|
| 1777753362 | 17.78° C | 37% | 1018.4 hPa | 0 mm | - | - | - |
| 1777751861 | 18.33° C | 36% | 1018.2 hPa | 0 mm | - | - | - |
| 1777750361 | 18.33° C | 37% | 1018.1 hPa | 0 mm | - | - | - |
| 1777748861 | 18.89° C | 35% | 1017.9 hPa | 0 mm | - | - | - |
| 1777747361 | 19.44° C | 35% | 1017.9 hPa | 0 mm | - | - | - |
| 1777745861 | 20° C | 34% | 1018 hPa | 0 mm | - | - | - |
| 1777744361 | 20° C | 32% | 1018 hPa | 0 mm | - | - | - |
| 1777742860 | 20.56° C | 32% | 1017.8 hPa | 0 mm | - | - | - |
| 1777741360 | 21.67° C | 33% | 1018 hPa | 0 mm | - | - | - |
| 1777739860 | 22.22° C | 32% | 1018.1 hPa | 0 mm | - | - | - |
| 1777738360 | 22.78° C | 33% | 1018.2 hPa | 0 mm | - | - | - |
| 1777736860 | 22.78° C | 33% | 1018.4 hPa | 0 mm | - | - | - |
| 1777735360 | 22.78° C | 33% | 1018.4 hPa | 0 mm | - | - | - |
| 1777733859 | 23.89° C | 33% | 1018.6 hPa | 0 mm | - | - | - |
| 1777732359 | 23.89° C | 34% | 1019 hPa | 0 mm | - | - | - |
| 1777730859 | 24.44° C | 34% | 1019.2 hPa | 0 mm | - | - | - |
| 1777729359 | 24.44° C | 35% | 1019.6 hPa | 0 mm | - | - | - |
| 1777727859 | 24.44° C | 35% | 1020 hPa | 0 mm | - | - | - |
| 1777726359 | 23.89° C | 35% | 1020.2 hPa | 0 mm | - | - | - |
| 1777724858 | 23.33° C | 36% | 1020.3 hPa | 0 mm | - | - | - |
| 1777723358 | 23.33° C | 37% | 1020.7 hPa | 0 mm | - | - | - |
| 1777721858 | 22.22° C | 38% | 1021.1 hPa | 0 mm | - | - | - |
| 1777720358 | 22.78° C | 39% | 1021.3 hPa | 0 mm | - | - | - |
| 1777718858 | 22.22° C | 42% | 1021.9 hPa | 0 mm | - | - | - |
| 1777717358 | 21.67° C | 44% | 1021.9 hPa | 0 mm | - | - | - |
* Rain latest hour (hover to see other rain measurements)
** Current wind speed in m/s (hover to see current wind gust speed)